sensor_id;sensor_type;location;lat;lon;timestamp;P1;P2;P0
36513;PMS5003;74739;46.796;9.824;2024-02-21T00:02:06;1;1;
36513;PMS5003;74739;46.796;9.824;2024-02-21T00:04:33;0;0;
36513;PMS5003;74739;46.796;9.824;2024-02-21T00:07:00;2;1;
36513;PMS5003;74739;46.796;9.824;2024-02-21T00:09:27;1;1;
36513;PMS5003;74739;46.796;9.824;2024-02-21T00:11:54;1;1;
36513;PMS5003;74739;46.796;9.824;2024-02-21T00:14:21;2;1;
36513;PMS5003;74739;46.796;9.824;2024-02-21T00:16:48;2;1;
36513;PMS5003;74739;46.796;9.824;2024-02-21T00:19:15;3;2;
36513;PMS5003;74739;46.796;9.824;2024-02-21T00:21:43;1;1;
36513;PMS5003;74739;46.796;9.824;2024-02-21T00:24:10;0;0;
36513;PMS5003;74739;46.796;9.824;2024-02-21T00:26:37;1;1;
36513;PMS5003;74739;46.796;9.824;2024-02-21T00:29:04;0;0;
36513;PMS5003;74739;46.796;9.824;2024-02-21T00:31:31;2;1;
36513;PMS5003;74739;46.796;9.824;2024-02-21T00:33:58;0;0;
36513;PMS5003;74739;46.796;9.824;2024-02-21T00:36:25;0;0;
36513;PMS5003;74739;46.796;9.824;2024-02-21T00:38:52;1;1;
36513;PMS5003;74739;46.796;9.824;2024-02-21T00:41:19;1;1;
36513;PMS5003;74739;46.796;9.824;2024-02-21T00:43:46;2;1;
36513;PMS5003;74739;46.796;9.824;2024-02-21T00:46:13;2;2;
36513;PMS5003;74739;46.796;9.824;2024-02-21T00:48:40;1;1;
36513;PMS5003;74739;46.796;9.824;2024-02-21T00:51:07;1;1;
36513;PMS5003;74739;46.796;9.824;2024-02-21T00:53:34;2;2;
36513;PMS5003;74739;46.796;9.824;2024-02-21T00:56:02;2;2;
36513;PMS5003;74739;46.796;9.824;2024-02-21T00:58:30;1;1;
36513;PMS5003;74739;46.796;9.824;2024-02-21T01:00:58;1;1;
36513;PMS5003;74739;46.796;9.824;2024-02-21T01:03:27;1;1;
36513;PMS5003;74739;46.796;9.824;2024-02-21T01:05:54;2;2;
36513;PMS5003;74739;46.796;9.824;2024-02-21T01:08:23;0;0;
36513;PMS5003;74739;46.796;9.824;2024-02-21T01:10:51;1;1;
36513;PMS5003;74739;46.796;9.824;2024-02-21T01:13:18;1;1;
36513;PMS5003;74739;46.796;9.824;2024-02-21T01:15:46;3;2;
36513;PMS5003;74739;46.796;9.824;2024-02-21T01:18:14;1;1;
36513;PMS5003;74739;46.796;9.824;2024-02-21T01:20:42;6;6;
36513;PMS5003;74739;46.796;9.824;2024-02-21T01:23:11;7;7;
36513;PMS5003;74739;46.796;9.824;2024-02-21T01:25:39;0;0;
36513;PMS5003;74739;46.796;9.824;2024-02-21T01:28:07;0;0;
36513;PMS5003;74739;46.796;9.824;2024-02-21T01:30:35;0;0;
36513;PMS5003;74739;46.796;9.824;2024-02-21T01:33:03;1;1;
36513;PMS5003;74739;46.796;9.824;2024-02-21T01:35:31;1;1;
36513;PMS5003;74739;46.796;9.824;2024-02-21T01:37:59;1;1;
36513;PMS5003;74739;46.796;9.824;2024-02-21T01:40:27;1;1;
36513;PMS5003;74739;46.796;9.824;2024-02-21T01:42:55;5;3;
36513;PMS5003;74739;46.796;9.824;2024-02-21T01:45:23;1;1;
36513;PMS5003;74739;46.796;9.824;2024-02-21T01:47:52;1;1;
36513;PMS5003;74739;46.796;9.824;2024-02-21T01:50:20;5;5;
36513;PMS5003;74739;46.796;9.824;2024-02-21T01:52:50;5;5;
36513;PMS5003;74739;46.796;9.824;2024-02-21T01:55:18;1;1;
36513;PMS5003;74739;46.796;9.824;2024-02-21T01:57:47;2;2;
36513;PMS5003;74739;46.796;9.824;2024-02-21T02:00:15;1;1;
36513;PMS5003;74739;46.796;9.824;2024-02-21T02:02:43;1;1;
36513;PMS5003;74739;46.796;9.824;2024-02-21T02:05:12;1;0;
36513;PMS5003;74739;46.796;9.824;2024-02-21T02:07:41;1;1;
36513;PMS5003;74739;46.796;9.824;2024-02-21T02:10:10;0;0;
36513;PMS5003;74739;46.796;9.824;2024-02-21T02:12:38;0;0;
36513;PMS5003;74739;46.796;9.824;2024-02-21T02:15:06;1;1;
36513;PMS5003;74739;46.796;9.824;2024-02-21T02:17:35;1;0;
36513;PMS5003;74739;46.796;9.824;2024-02-21T02:20:03;0;0;
36513;PMS5003;74739;46.796;9.824;2024-02-21T02:22:31;1;1;
36513;PMS5003;74739;46.796;9.824;2024-02-21T02:25:02;1;1;
36513;PMS5003;74739;46.796;9.824;2024-02-21T02:27:31;2;2;
36513;PMS5003;74739;46.796;9.824;2024-02-21T02:29:59;1;1;
36513;PMS5003;74739;46.796;9.824;2024-02-21T02:32:29;0;0;
36513;PMS5003;74739;46.796;9.824;2024-02-21T02:34:57;1;1;
36513;PMS5003;74739;46.796;9.824;2024-02-21T02:37:25;0;0;
36513;PMS5003;74739;46.796;9.824;2024-02-21T02:39:53;1;1;
36513;PMS5003;74739;46.796;9.824;2024-02-21T02:42:21;2;1;
36513;PMS5003;74739;46.796;9.824;2024-02-21T02:44:49;0;0;
36513;PMS5003;74739;46.796;9.824;2024-02-21T02:47:17;1;1;
36513;PMS5003;74739;46.796;9.824;2024-02-21T02:49:45;0;0;
36513;PMS5003;74739;46.796;9.824;2024-02-21T02:52:13;0;0;
36513;PMS5003;74739;46.796;9.824;2024-02-21T02:54:41;0;0;
36513;PMS5003;74739;46.796;9.824;2024-02-21T02:57:08;0;0;
36513;PMS5003;74739;46.796;9.824;2024-02-21T02:59:37;0;0;
36513;PMS5003;74739;46.796;9.824;2024-02-21T03:02:04;2;1;
36513;PMS5003;74739;46.796;9.824;2024-02-21T03:04:31;0;0;
36513;PMS5003;74739;46.796;9.824;2024-02-21T03:06:59;0;0;
36513;PMS5003;74739;46.796;9.824;2024-02-21T03:09:27;0;0;
36513;PMS5003;74739;46.796;9.824;2024-02-21T03:11:54;1;0;
36513;PMS5003;74739;46.796;9.824;2024-02-21T03:14:21;1;0;
36513;PMS5003;74739;46.796;9.824;2024-02-21T03:16:50;1;1;
36513;PMS5003;74739;46.796;9.824;2024-02-21T03:19:19;0;0;
36513;PMS5003;74739;46.796;9.824;2024-02-21T03:21:48;0;0;
36513;PMS5003;74739;46.796;9.824;2024-02-21T03:24:21;0;0;
36513;PMS5003;74739;46.796;9.824;2024-02-21T03:26:49;0;0;
36513;PMS5003;74739;46.796;9.824;2024-02-21T03:29:16;1;0;
36513;PMS5003;74739;46.796;9.824;2024-02-21T03:31:44;1;1;
36513;PMS5003;74739;46.796;9.824;2024-02-21T03:34:11;0;0;
36513;PMS5003;74739;46.796;9.824;2024-02-21T03:36:40;1;1;
36513;PMS5003;74739;46.796;9.824;2024-02-21T03:39:07;1;1;
36513;PMS5003;74739;46.796;9.824;2024-02-21T03:41:34;0;0;
36513;PMS5003;74739;46.796;9.824;2024-02-21T03:44:02;0;0;
36513;PMS5003;74739;46.796;9.824;2024-02-21T03:46:30;0;0;
36513;PMS5003;74739;46.796;9.824;2024-02-21T03:48:57;0;0;
36513;PMS5003;74739;46.796;9.824;2024-02-21T03:51:25;1;1;
36513;PMS5003;74739;46.796;9.824;2024-02-21T03:53:52;0;0;
36513;PMS5003;74739;46.796;9.824;2024-02-21T03:56:19;0;0;
36513;PMS5003;74739;46.796;9.824;2024-02-21T03:58:46;0;0;
36513;PMS5003;74739;46.796;9.824;2024-02-21T04:01:14;0;0;
36513;PMS5003;74739;46.796;9.824;2024-02-21T04:03:43;0;0;
36513;PMS5003;74739;46.796;9.824;2024-02-21T04:06:10;0;0;
36513;PMS5003;74739;46.796;9.824;2024-02-21T04:08:38;0;0;
36513;PMS5003;74739;46.796;9.824;2024-02-21T04:11:05;0;0;
36513;PMS5003;74739;46.796;9.824;2024-02-21T04:13:32;1;1;
36513;PMS5003;74739;46.796;9.824;2024-02-21T04:16:00;1;1;
36513;PMS5003;74739;46.796;9.824;2024-02-21T04:18:27;1;1;
36513;PMS5003;74739;46.796;9.824;2024-02-21T04:20:54;1;0;
36513;PMS5003;74739;46.796;9.824;2024-02-21T04:23:21;1;1;
36513;PMS5003;74739;46.796;9.824;2024-02-21T04:25:48;2;1;
36513;PMS5003;74739;46.796;9.824;2024-02-21T04:28:15;1;0;
36513;PMS5003;74739;46.796;9.824;2024-02-21T04:30:42;4;2;
36513;PMS5003;74739;46.796;9.824;2024-02-21T04:33:10;1;1;
36513;PMS5003;74739;46.796;9.824;2024-02-21T04:35:37;0;0;
36513;PMS5003;74739;46.796;9.824;2024-02-21T04:38:04;1;0;
36513;PMS5003;74739;46.796;9.824;2024-02-21T04:40:31;1;1;
36513;PMS5003;74739;46.796;9.824;2024-02-21T04:42:58;1;1;
36513;PMS5003;74739;46.796;9.824;2024-02-21T04:45:25;1;1;
36513;PMS5003;74739;46.796;9.824;2024-02-21T04:47:52;0;0;
36513;PMS5003;74739;46.796;9.824;2024-02-21T04:50:19;0;0;
36513;PMS5003;74739;46.796;9.824;2024-02-21T04:52:47;0;0;
36513;PMS5003;74739;46.796;9.824;2024-02-21T04:55:14;0;0;
36513;PMS5003;74739;46.796;9.824;2024-02-21T04:57:41;3;2;
36513;PMS5003;74739;46.796;9.824;2024-02-21T05:00:08;1;1;
36513;PMS5003;74739;46.796;9.824;2024-02-21T05:02:36;1;1;
36513;PMS5003;74739;46.796;9.824;2024-02-21T05:05:03;2;1;
36513;PMS5003;74739;46.796;9.824;2024-02-21T05:07:30;1;1;
36513;PMS5003;74739;46.796;9.824;2024-02-21T05:09:58;1;1;
36513;PMS5003;74739;46.796;9.824;2024-02-21T05:12:25;1;1;
36513;PMS5003;74739;46.796;9.824;2024-02-21T05:14:52;5;4;
36513;PMS5003;74739;46.796;9.824;2024-02-21T05:17:19;1;1;
36513;PMS5003;74739;46.796;9.824;2024-02-21T05:19:46;1;1;
36513;PMS5003;74739;46.796;9.824;2024-02-21T05:22:13;1;1;
36513;PMS5003;74739;46.796;9.824;2024-02-21T05:24:40;1;1;
36513;PMS5003;74739;46.796;9.824;2024-02-21T05:27:07;1;0;
36513;PMS5003;74739;46.796;9.824;2024-02-21T05:29:34;1;1;
36513;PMS5003;74739;46.796;9.824;2024-02-21T05:32:01;2;2;
36513;PMS5003;74739;46.796;9.824;2024-02-21T05:34:28;1;1;
36513;PMS5003;74739;46.796;9.824;2024-02-21T05:36:56;0;0;
36513;PMS5003;74739;46.796;9.824;2024-02-21T05:39:23;2;2;
36513;PMS5003;74739;46.796;9.824;2024-02-21T05:41:50;1;0;
36513;PMS5003;74739;46.796;9.824;2024-02-21T05:44:17;1;0;
36513;PMS5003;74739;46.796;9.824;2024-02-21T05:46:44;1;1;
36513;PMS5003;74739;46.796;9.824;2024-02-21T05:49:11;1;1;
36513;PMS5003;74739;46.796;9.824;2024-02-21T05:51:38;4;4;
36513;PMS5003;74739;46.796;9.824;2024-02-21T05:54:05;4;2;
36513;PMS5003;74739;46.796;9.824;2024-02-21T05:56:32;1;1;
36513;PMS5003;74739;46.796;9.824;2024-02-21T05:58:59;3;1;
36513;PMS5003;74739;46.796;9.824;2024-02-21T06:01:26;0;0;
36513;PMS5003;74739;46.796;9.824;2024-02-21T06:03:53;2;2;
36513;PMS5003;74739;46.796;9.824;2024-02-21T06:06:21;2;1;
36513;PMS5003;74739;46.796;9.824;2024-02-21T06:08:48;2;2;
36513;PMS5003;74739;46.796;9.824;2024-02-21T06:11:15;1;1;
36513;PMS5003;74739;46.796;9.824;2024-02-21T06:13:43;3;2;
36513;PMS5003;74739;46.796;9.824;2024-02-21T06:16:09;3;2;
36513;PMS5003;74739;46.796;9.824;2024-02-21T06:18:37;3;3;
36513;PMS5003;74739;46.796;9.824;2024-02-21T06:21:05;7;6;
36513;PMS5003;74739;46.796;9.824;2024-02-21T06:23:32;5;3;
36513;PMS5003;74739;46.796;9.824;2024-02-21T06:25:59;2;2;
36513;PMS5003;74739;46.796;9.824;2024-02-21T06:28:27;2;1;
36513;PMS5003;74739;46.796;9.824;2024-02-21T06:30:54;2;2;
36513;PMS5003;74739;46.796;9.824;2024-02-21T06:33:22;2;1;
36513;PMS5003;74739;46.796;9.824;2024-02-21T06:35:49;2;2;
36513;PMS5003;74739;46.796;9.824;2024-02-21T06:38:16;5;5;
36513;PMS5003;74739;46.796;9.824;2024-02-21T06:40:43;3;3;
36513;PMS5003;74739;46.796;9.824;2024-02-21T06:43:10;3;2;
36513;PMS5003;74739;46.796;9.824;2024-02-21T06:45:38;3;3;
36513;PMS5003;74739;46.796;9.824;2024-02-21T06:48:06;2;2;
36513;PMS5003;74739;46.796;9.824;2024-02-21T06:50:33;7;6;
36513;PMS5003;74739;46.796;9.824;2024-02-21T06:53:00;5;3;
36513;PMS5003;74739;46.796;9.824;2024-02-21T06:55:27;5;5;
36513;PMS5003;74739;46.796;9.824;2024-02-21T06:57:54;7;5;
36513;PMS5003;74739;46.796;9.824;2024-02-21T07:00:22;9;7;
36513;PMS5003;74739;46.796;9.824;2024-02-21T07:02:50;10;7;
36513;PMS5003;74739;46.796;9.824;2024-02-21T07:05:17;3;3;
36513;PMS5003;74739;46.796;9.824;2024-02-21T07:07:45;3;2;
36513;PMS5003;74739;46.796;9.824;2024-02-21T07:10:13;5;5;
36513;PMS5003;74739;46.796;9.824;2024-02-21T07:12:43;7;3;
36513;PMS5003;74739;46.796;9.824;2024-02-21T07:15:10;5;2;
36513;PMS5003;74739;46.796;9.824;2024-02-21T07:17:37;1;1;
36513;PMS5003;74739;46.796;9.824;2024-02-21T07:20:05;6;5;
36513;PMS5003;74739;46.796;9.824;2024-02-21T07:22:34;3;2;
36513;PMS5003;74739;46.796;9.824;2024-02-21T07:25:01;5;2;
36513;PMS5003;74739;46.796;9.824;2024-02-21T07:27:28;7;6;
36513;PMS5003;74739;46.796;9.824;2024-02-21T07:29:55;3;3;
36513;PMS5003;74739;46.796;9.824;2024-02-21T07:32:23;7;6;
36513;PMS5003;74739;46.796;9.824;2024-02-21T07:34:51;6;6;
36513;PMS5003;74739;46.796;9.824;2024-02-21T07:37:18;6;5;
36513;PMS5003;74739;46.796;9.824;2024-02-21T07:39:45;7;6;
36513;PMS5003;74739;46.796;9.824;2024-02-21T07:42:13;7;6;
36513;PMS5003;74739;46.796;9.824;2024-02-21T07:44:40;15;8;
36513;PMS5003;74739;46.796;9.824;2024-02-21T07:47:07;7;6;
36513;PMS5003;74739;46.796;9.824;2024-02-21T07:49:40;6;6;
36513;PMS5003;74739;46.796;9.824;2024-02-21T07:52:07;6;6;
36513;PMS5003;74739;46.796;9.824;2024-02-21T07:54:34;5;3;
36513;PMS5003;74739;46.796;9.824;2024-02-21T07:57:01;8;7;
36513;PMS5003;74739;46.796;9.824;2024-02-21T07:59:29;13;12;
36513;PMS5003;74739;46.796;9.824;2024-02-21T08:01:57;8;7;
36513;PMS5003;74739;46.796;9.824;2024-02-21T08:04:24;8;4;
36513;PMS5003;74739;46.796;9.824;2024-02-21T08:06:51;3;3;
36513;PMS5003;74739;46.796;9.824;2024-02-21T08:09:19;6;4;
36513;PMS5003;74739;46.796;9.824;2024-02-21T08:11:56;3;2;
36513;PMS5003;74739;46.796;9.824;2024-02-21T08:14:23;8;7;
36513;PMS5003;74739;46.796;9.824;2024-02-21T08:16:51;6;3;
36513;PMS5003;74739;46.796;9.824;2024-02-21T08:19:18;3;3;
36513;PMS5003;74739;46.796;9.824;2024-02-21T08:21:45;4;4;
36513;PMS5003;74739;46.796;9.824;2024-02-21T08:24:12;4;4;
36513;PMS5003;74739;46.796;9.824;2024-02-21T08:26:41;4;4;
36513;PMS5003;74739;46.796;9.824;2024-02-21T08:29:18;8;6;
36513;PMS5003;74739;46.796;9.824;2024-02-21T08:31:55;4;4;
36513;PMS5003;74739;46.796;9.824;2024-02-21T08:34:22;7;7;
36513;PMS5003;74739;46.796;9.824;2024-02-21T08:36:49;9;9;
36513;PMS5003;74739;46.796;9.824;2024-02-21T08:39:16;7;7;
36513;PMS5003;74739;46.796;9.824;2024-02-21T08:41:43;12;9;
36513;PMS5003;74739;46.796;9.824;2024-02-21T08:44:10;9;8;
36513;PMS5003;74739;46.796;9.824;2024-02-21T08:46:37;9;8;
36513;PMS5003;74739;46.796;9.824;2024-02-21T08:49:05;4;4;
36513;PMS5003;74739;46.796;9.824;2024-02-21T08:51:32;4;4;
36513;PMS5003;74739;46.796;9.824;2024-02-21T08:53:59;7;6;
36513;PMS5003;74739;46.796;9.824;2024-02-21T08:56:26;6;4;
36513;PMS5003;74739;46.796;9.824;2024-02-21T08:58:52;4;4;
36513;PMS5003;74739;46.796;9.824;2024-02-21T09:01:27;7;5;
36513;PMS5003;74739;46.796;9.824;2024-02-21T09:03:56;8;5;
36513;PMS5003;74739;46.796;9.824;2024-02-21T09:06:23;5;4;
36513;PMS5003;74739;46.796;9.824;2024-02-21T09:09:03;7;7;
36513;PMS5003;74739;46.796;9.824;2024-02-21T09:11:30;8;7;
36513;PMS5003;74739;46.796;9.824;2024-02-21T09:13:58;10;8;
36513;PMS5003;74739;46.796;9.824;2024-02-21T09:16:24;8;8;
36513;PMS5003;74739;46.796;9.824;2024-02-21T09:18:52;14;8;
36513;PMS5003;74739;46.796;9.824;2024-02-21T09:21:19;7;7;
36513;PMS5003;74739;46.796;9.824;2024-02-21T09:23:46;8;7;
36513;PMS5003;74739;46.796;9.824;2024-02-21T09:26:14;10;7;
36513;PMS5003;74739;46.796;9.824;2024-02-21T09:28:42;12;5;
36513;PMS5003;74739;46.796;9.824;2024-02-21T09:31:09;9;6;
36513;PMS5003;74739;46.796;9.824;2024-02-21T09:33:37;10;9;
36513;PMS5003;74739;46.796;9.824;2024-02-21T09:36:05;8;5;
36513;PMS5003;74739;46.796;9.824;2024-02-21T09:38:32;7;7;
36513;PMS5003;74739;46.796;9.824;2024-02-21T09:41:00;4;4;
36513;PMS5003;74739;46.796;9.824;2024-02-21T09:43:39;6;5;
36513;PMS5003;74739;46.796;9.824;2024-02-21T09:46:07;5;5;
36513;PMS5003;74739;46.796;9.824;2024-02-21T09:48:42;4;4;
36513;PMS5003;74739;46.796;9.824;2024-02-21T09:51:25;1;0;
36513;PMS5003;74739;46.796;9.824;2024-02-21T09:53:55;1;1;
36513;PMS5003;74739;46.796;9.824;2024-02-21T09:56:23;1;1;
36513;PMS5003;74739;46.796;9.824;2024-02-21T09:58:50;1;1;
36513;PMS5003;74739;46.796;9.824;2024-02-21T10:01:17;5;2;
36513;PMS5003;74739;46.796;9.824;2024-02-21T10:03:44;2;2;
36513;PMS5003;74739;46.796;9.824;2024-02-21T10:06:10;2;2;
36513;PMS5003;74739;46.796;9.824;2024-02-21T10:08:38;3;2;
36513;PMS5003;74739;46.796;9.824;2024-02-21T10:11:05;3;2;
36513;PMS5003;74739;46.796;9.824;2024-02-21T10:13:33;3;3;
36513;PMS5003;74739;46.796;9.824;2024-02-21T10:16:00;5;4;
36513;PMS5003;74739;46.796;9.824;2024-02-21T10:18:28;10;9;
36513;PMS5003;74739;46.796;9.824;2024-02-21T10:21:03;10;10;
36513;PMS5003;74739;46.796;9.824;2024-02-21T10:23:48;6;6;
36513;PMS5003;74739;46.796;9.824;2024-02-21T10:26:27;3;2;
36513;PMS5003;74739;46.796;9.824;2024-02-21T10:28:54;2;1;
36513;PMS5003;74739;46.796;9.824;2024-02-21T10:31:22;2;1;
36513;PMS5003;74739;46.796;9.824;2024-02-21T10:33:55;0;0;
36513;PMS5003;74739;46.796;9.824;2024-02-21T10:36:22;1;1;
36513;PMS5003;74739;46.796;9.824;2024-02-21T10:38:50;1;1;
36513;PMS5003;74739;46.796;9.824;2024-02-21T10:41:19;1;1;
36513;PMS5003;74739;46.796;9.824;2024-02-21T10:43:49;0;0;
36513;PMS5003;74739;46.796;9.824;2024-02-21T10:46:18;2;1;
36513;PMS5003;74739;46.796;9.824;2024-02-21T10:48:46;0;0;
36513;PMS5003;74739;46.796;9.824;2024-02-21T10:51:15;3;2;
36513;PMS5003;74739;46.796;9.824;2024-02-21T10:53:44;1;1;
36513;PMS5003;74739;46.796;9.824;2024-02-21T10:56:16;2;1;
36513;PMS5003;74739;46.796;9.824;2024-02-21T10:58:49;0;0;
36513;PMS5003;74739;46.796;9.824;2024-02-21T11:01:17;2;0;
36513;PMS5003;74739;46.796;9.824;2024-02-21T11:03:46;2;2;
36513;PMS5003;74739;46.796;9.824;2024-02-21T11:06:15;0;0;
36513;PMS5003;74739;46.796;9.824;2024-02-21T11:08:43;0;0;
36513;PMS5003;74739;46.796;9.824;2024-02-21T11:11:11;0;0;
36513;PMS5003;74739;46.796;9.824;2024-02-21T11:13:40;1;1;
36513;PMS5003;74739;46.796;9.824;2024-02-21T11:16:08;1;1;
36513;PMS5003;74739;46.796;9.824;2024-02-21T11:18:38;0;0;
36513;PMS5003;74739;46.796;9.824;2024-02-21T11:21:05;1;1;
36513;PMS5003;74739;46.796;9.824;2024-02-21T11:23:32;0;0;
36513;PMS5003;74739;46.796;9.824;2024-02-21T11:26:07;0;0;
36513;PMS5003;74739;46.796;9.824;2024-02-21T11:28:35;0;0;
36513;PMS5003;74739;46.796;9.824;2024-02-21T11:31:11;0;0;
36513;PMS5003;74739;46.796;9.824;2024-02-21T11:33:39;0;0;
36513;PMS5003;74739;46.796;9.824;2024-02-21T11:36:07;0;0;
36513;PMS5003;74739;46.796;9.824;2024-02-21T11:38:35;1;1;
36513;PMS5003;74739;46.796;9.824;2024-02-21T11:41:16;1;1;
36513;PMS5003;74739;46.796;9.824;2024-02-21T11:43:42;0;0;
36513;PMS5003;74739;46.796;9.824;2024-02-21T11:46:10;0;0;
36513;PMS5003;74739;46.796;9.824;2024-02-21T11:48:37;0;0;
36513;PMS5003;74739;46.796;9.824;2024-02-21T11:51:05;0;0;
36513;PMS5003;74739;46.796;9.824;2024-02-21T11:53:32;0;0;
36513;PMS5003;74739;46.796;9.824;2024-02-21T11:56:00;0;0;
36513;PMS5003;74739;46.796;9.824;2024-02-21T11:58:28;3;3;
36513;PMS5003;74739;46.796;9.824;2024-02-21T12:00:56;1;0;
36513;PMS5003;74739;46.796;9.824;2024-02-21T12:03:24;1;0;
36513;PMS5003;74739;46.796;9.824;2024-02-21T12:05:52;0;0;
36513;PMS5003;74739;46.796;9.824;2024-02-21T12:08:20;1;1;
36513;PMS5003;74739;46.796;9.824;2024-02-21T12:10:47;0;0;
36513;PMS5003;74739;46.796;9.824;2024-02-21T12:13:15;3;2;
36513;PMS5003;74739;46.796;9.824;2024-02-21T12:15:46;2;1;
36513;PMS5003;74739;46.796;9.824;2024-02-21T12:18:14;0;0;
36513;PMS5003;74739;46.796;9.824;2024-02-21T12:20:41;0;0;
36513;PMS5003;74739;46.796;9.824;2024-02-21T12:23:10;2;1;
36513;PMS5003;74739;46.796;9.824;2024-02-21T12:25:36;3;2;
36513;PMS5003;74739;46.796;9.824;2024-02-21T12:28:05;2;1;
36513;PMS5003;74739;46.796;9.824;2024-02-21T12:30:33;1;1;
36513;PMS5003;74739;46.796;9.824;2024-02-21T12:33:01;2;1;
36513;PMS5003;74739;46.796;9.824;2024-02-21T12:35:28;1;1;
36513;PMS5003;74739;46.796;9.824;2024-02-21T12:37:55;1;0;
36513;PMS5003;74739;46.796;9.824;2024-02-21T12:40:23;2;2;
36513;PMS5003;74739;46.796;9.824;2024-02-21T12:42:50;1;1;
36513;PMS5003;74739;46.796;9.824;2024-02-21T12:45:18;0;0;
36513;PMS5003;74739;46.796;9.824;2024-02-21T12:47:45;1;1;
36513;PMS5003;74739;46.796;9.824;2024-02-21T12:50:13;0;0;
36513;PMS5003;74739;46.796;9.824;2024-02-21T12:52:40;0;0;
36513;PMS5003;74739;46.796;9.824;2024-02-21T12:55:08;0;0;
36513;PMS5003;74739;46.796;9.824;2024-02-21T12:57:35;0;0;
36513;PMS5003;74739;46.796;9.824;2024-02-21T13:00:03;1;0;
36513;PMS5003;74739;46.796;9.824;2024-02-21T13:02:31;0;0;
36513;PMS5003;74739;46.796;9.824;2024-02-21T13:04:59;0;0;
36513;PMS5003;74739;46.796;9.824;2024-02-21T13:07:26;0;0;
36513;PMS5003;74739;46.796;9.824;2024-02-21T13:09:54;1;1;
36513;PMS5003;74739;46.796;9.824;2024-02-21T13:12:21;1;0;
36513;PMS5003;74739;46.796;9.824;2024-02-21T13:14:48;0;0;
36513;PMS5003;74739;46.796;9.824;2024-02-21T13:17:16;0;0;
36513;PMS5003;74739;46.796;9.824;2024-02-21T13:19:43;1;0;
36513;PMS5003;74739;46.796;9.824;2024-02-21T13:22:11;0;0;
36513;PMS5003;74739;46.796;9.824;2024-02-21T13:24:38;2;1;
36513;PMS5003;74739;46.796;9.824;2024-02-21T13:27:05;2;1;
36513;PMS5003;74739;46.796;9.824;2024-02-21T13:29:33;1;1;
36513;PMS5003;74739;46.796;9.824;2024-02-21T13:32:00;0;0;
36513;PMS5003;74739;46.796;9.824;2024-02-21T13:34:28;0;0;
36513;PMS5003;74739;46.796;9.824;2024-02-21T13:36:55;0;0;
36513;PMS5003;74739;46.796;9.824;2024-02-21T13:39:22;1;0;
36513;PMS5003;74739;46.796;9.824;2024-02-21T13:41:50;0;0;
36513;PMS5003;74739;46.796;9.824;2024-02-21T13:44:17;1;0;
36513;PMS5003;74739;46.796;9.824;2024-02-21T13:46:45;0;0;
36513;PMS5003;74739;46.796;9.824;2024-02-21T13:49:12;10;4;
36513;PMS5003;74739;46.796;9.824;2024-02-21T13:51:39;5;4;
36513;PMS5003;74739;46.796;9.824;2024-02-21T13:54:07;6;5;
36513;PMS5003;74739;46.796;9.824;2024-02-21T13:56:34;2;1;
36513;PMS5003;74739;46.796;9.824;2024-02-21T13:59:02;2;2;
36513;PMS5003;74739;46.796;9.824;2024-02-21T14:01:29;0;0;
36513;PMS5003;74739;46.796;9.824;2024-02-21T14:03:56;0;0;
36513;PMS5003;74739;46.796;9.824;2024-02-21T14:06:24;2;1;
36513;PMS5003;74739;46.796;9.824;2024-02-21T14:08:51;2;1;
36513;PMS5003;74739;46.796;9.824;2024-02-21T14:11:19;0;0;
36513;PMS5003;74739;46.796;9.824;2024-02-21T14:13:46;1;1;
36513;PMS5003;74739;46.796;9.824;2024-02-21T14:16:13;1;1;
36513;PMS5003;74739;46.796;9.824;2024-02-21T14:18:41;2;1;
36513;PMS5003;74739;46.796;9.824;2024-02-21T14:21:08;0;0;
36513;PMS5003;74739;46.796;9.824;2024-02-21T14:23:37;1;1;
36513;PMS5003;74739;46.796;9.824;2024-02-21T14:26:17;2;1;
36513;PMS5003;74739;46.796;9.824;2024-02-21T14:28:44;1;1;
36513;PMS5003;74739;46.796;9.824;2024-02-21T14:31:11;4;1;
36513;PMS5003;74739;46.796;9.824;2024-02-21T14:33:38;0;0;
36513;PMS5003;74739;46.796;9.824;2024-02-21T14:36:06;2;1;
36513;PMS5003;74739;46.796;9.824;2024-02-21T14:38:33;0;0;
36513;PMS5003;74739;46.796;9.824;2024-02-21T14:41:00;1;1;
36513;PMS5003;74739;46.796;9.824;2024-02-21T14:43:27;1;1;
36513;PMS5003;74739;46.796;9.824;2024-02-21T14:45:55;1;1;
36513;PMS5003;74739;46.796;9.824;2024-02-21T14:48:22;1;0;
36513;PMS5003;74739;46.796;9.824;2024-02-21T14:50:49;1;1;
36513;PMS5003;74739;46.796;9.824;2024-02-21T14:53:17;1;1;
36513;PMS5003;74739;46.796;9.824;2024-02-21T14:55:44;2;1;
36513;PMS5003;74739;46.796;9.824;2024-02-21T14:58:12;1;1;
36513;PMS5003;74739;46.796;9.824;2024-02-21T15:00:42;0;0;
36513;PMS5003;74739;46.796;9.824;2024-02-21T15:03:09;0;0;
36513;PMS5003;74739;46.796;9.824;2024-02-21T15:05:36;1;0;
36513;PMS5003;74739;46.796;9.824;2024-02-21T15:08:04;0;0;
36513;PMS5003;74739;46.796;9.824;2024-02-21T15:10:31;1;1;
36513;PMS5003;74739;46.796;9.824;2024-02-21T15:12:58;3;1;
36513;PMS5003;74739;46.796;9.824;2024-02-21T15:15:26;1;1;
36513;PMS5003;74739;46.796;9.824;2024-02-21T15:17:53;2;1;
36513;PMS5003;74739;46.796;9.824;2024-02-21T15:20:21;1;0;
36513;PMS5003;74739;46.796;9.824;2024-02-21T15:22:48;2;1;
36513;PMS5003;74739;46.796;9.824;2024-02-21T15:25:16;2;1;
36513;PMS5003;74739;46.796;9.824;2024-02-21T15:27:44;1;1;
36513;PMS5003;74739;46.796;9.824;2024-02-21T15:30:11;1;1;
36513;PMS5003;74739;46.796;9.824;2024-02-21T15:32:40;2;1;
36513;PMS5003;74739;46.796;9.824;2024-02-21T15:35:07;4;3;
36513;PMS5003;74739;46.796;9.824;2024-02-21T15:37:35;2;1;
36513;PMS5003;74739;46.796;9.824;2024-02-21T15:40:02;2;1;
36513;PMS5003;74739;46.796;9.824;2024-02-21T15:42:30;2;1;
36513;PMS5003;74739;46.796;9.824;2024-02-21T15:44:58;1;0;
36513;PMS5003;74739;46.796;9.824;2024-02-21T15:47:26;0;0;
36513;PMS5003;74739;46.796;9.824;2024-02-21T15:49:53;2;2;
36513;PMS5003;74739;46.796;9.824;2024-02-21T15:52:20;2;2;
36513;PMS5003;74739;46.796;9.824;2024-02-21T15:54:47;2;2;
36513;PMS5003;74739;46.796;9.824;2024-02-21T15:57:15;1;1;
36513;PMS5003;74739;46.796;9.824;2024-02-21T15:59:42;3;1;
36513;PMS5003;74739;46.796;9.824;2024-02-21T16:02:10;1;0;
36513;PMS5003;74739;46.796;9.824;2024-02-21T16:04:37;1;1;
36513;PMS5003;74739;46.796;9.824;2024-02-21T16:07:05;2;2;
36513;PMS5003;74739;46.796;9.824;2024-02-21T16:09:32;0;0;
36513;PMS5003;74739;46.796;9.824;2024-02-21T16:12:00;1;1;
36513;PMS5003;74739;46.796;9.824;2024-02-21T16:14:27;2;0;
36513;PMS5003;74739;46.796;9.824;2024-02-21T16:16:54;2;2;
36513;PMS5003;74739;46.796;9.824;2024-02-21T16:19:21;1;1;
36513;PMS5003;74739;46.796;9.824;2024-02-21T16:21:49;3;2;
36513;PMS5003;74739;46.796;9.824;2024-02-21T16:24:16;1;1;
36513;PMS5003;74739;46.796;9.824;2024-02-21T16:26:44;1;0;
36513;PMS5003;74739;46.796;9.824;2024-02-21T16:29:11;4;4;
36513;PMS5003;74739;46.796;9.824;2024-02-21T16:31:39;4;4;
36513;PMS5003;74739;46.796;9.824;2024-02-21T16:34:06;2;2;
36513;PMS5003;74739;46.796;9.824;2024-02-21T16:36:33;6;4;
36513;PMS5003;74739;46.796;9.824;2024-02-21T16:39:01;2;2;
36513;PMS5003;74739;46.796;9.824;2024-02-21T16:41:28;3;2;
36513;PMS5003;74739;46.796;9.824;2024-02-21T16:43:56;2;2;
36513;PMS5003;74739;46.796;9.824;2024-02-21T16:46:22;2;2;
36513;PMS5003;74739;46.796;9.824;2024-02-21T16:48:50;5;4;
36513;PMS5003;74739;46.796;9.824;2024-02-21T16:51:17;3;2;
36513;PMS5003;74739;46.796;9.824;2024-02-21T16:53:43;1;1;
36513;PMS5003;74739;46.796;9.824;2024-02-21T16:56:11;1;0;